Time;durP1;ratioP1;P1;durP2;ratioP2;P2;SDS_P1;SDS_P2;PMS_P1;PMS_P2;Temp;Humidity;BMP_temperature;BMP_pressure;BME280_temperature;BME280_humidity;BME280_pressure;Samples;Min_cycle;Max_cycle;Signal;HPM_P1;HPM_P2
2022/07/24 00:00:30;;;;;;;4.03;2.10;;;;;;;;;;5010989;28;20653;-84
2022/07/24 00:02:55;;;;;;;5.25;1.60;;;;;;;;;;5012911;28;20133;-84
2022/07/24 00:05:20;;;;;;;3.05;1.60;;;;;;;;;;5010644;28;20037;-84
2022/07/24 00:07:46;;;;;;;3.25;1.50;;;;;;;;;;4999983;28;20105;-84
2022/07/24 00:10:11;;;;;;;4.57;2.08;;;;;;;;;;5008959;28;20053;-84
2022/07/24 00:12:37;;;;;;;4.15;1.90;;;;;;;;;;5000094;28;20112;-84
2022/07/24 00:15:03;;;;;;;3.92;1.85;;;;;;;;;;5004161;28;20050;-84
2022/07/24 00:17:28;;;;;;;3.40;1.80;;;;;;;;;;5011001;28;20041;-85
2022/07/24 00:19:54;;;;;;;5.10;1.98;;;;;;;;;;5014890;28;20481;-85
2022/07/24 00:22:19;;;;;;;6.55;2.05;;;;;;;;;;5011070;28;20513;-84
2022/07/24 00:24:44;;;;;;;4.90;1.85;;;;;;;;;;4984364;28;20441;-84
2022/07/24 00:27:10;;;;;;;4.63;2.08;;;;;;;;;;4984370;28;20029;-84
2022/07/24 00:29:35;;;;;;;4.72;2.10;;;;;;;;;;4982794;28;20125;-84
2022/07/24 00:32:01;;;;;;;4.50;2.03;;;;;;;;;;5014968;28;20061;-84
2022/07/24 00:34:26;;;;;;;4.50;2.00;;;;;;;;;;4987957;28;20111;-84
2022/07/24 00:36:52;;;;;;;4.57;1.90;;;;;;;;;;5004478;28;20033;-84
2022/07/24 00:39:17;;;;;;;5.95;2.03;;;;;;;;;;4986710;28;20456;-85
2022/07/24 00:41:42;;;;;;;5.20;1.98;;;;;;;;;;5018413;28;20096;-84
2022/07/24 00:44:10;;;;;;;4.70;1.80;;;;;;;;;;4985133;28;20479;-84
2022/07/24 00:46:37;;;;;;;4.97;2.00;;;;;;;;;;4997217;28;20040;-84
2022/07/24 00:49:04;;;;;;;4.93;2.30;;;;;;;;;;5004739;28;20084;-84
2022/07/24 00:51:30;;;;;;;4.15;1.60;;;;;;;;;;4992726;28;20117;-84
2022/07/24 00:53:55;;;;;;;4.10;1.90;;;;;;;;;;4996814;28;20612;-84
2022/07/24 00:56:21;;;;;;;3.78;1.50;;;;;;;;;;4998489;28;20057;-85
2022/07/24 00:58:49;;;;;;;3.75;1.65;;;;;;;;;;5002025;28;20042;-84
2022/07/24 01:01:15;;;;;;;5.80;1.80;;;;;;;;;;4988914;28;20494;-84
2022/07/24 01:03:41;;;;;;;3.35;1.60;;;;;;;;;;5011940;28;20060;-85
2022/07/24 01:06:07;;;;;;;3.33;1.50;;;;;;;;;;5014472;28;20152;-84
2022/07/24 01:08:34;;;;;;;3.40;1.40;;;;;;;;;;5004365;28;20587;-84
2022/07/24 01:11:00;;;;;;;3.00;1.63;;;;;;;;;;5014876;28;20113;-85
2022/07/24 01:13:25;;;;;;;2.85;1.38;;;;;;;;;;5000640;28;20033;-84
2022/07/24 01:15:51;;;;;;;2.75;1.38;;;;;;;;;;5001918;28;20507;-84
2022/07/24 01:18:17;;;;;;;3.03;1.38;;;;;;;;;;4997220;28;20034;-85
2022/07/24 01:20:46;;;;;;;3.33;1.48;;;;;;;;;;4997595;28;20677;-85
2022/07/24 01:23:13;;;;;;;2.70;1.10;;;;;;;;;;5014195;28;20107;-85
2022/07/24 01:25:39;;;;;;;3.35;1.45;;;;;;;;;;5013449;28;20481;-84
2022/07/24 01:28:04;;;;;;;4.97;1.40;;;;;;;;;;5002852;28;20029;-85
2022/07/24 01:30:29;;;;;;;2.90;1.02;;;;;;;;;;5014150;28;20040;-85
2022/07/24 01:32:55;;;;;;;2.63;1.20;;;;;;;;;;4986724;28;20442;-84
2022/07/24 01:35:20;;;;;;;2.28;1.05;;;;;;;;;;5000177;28;20145;-84
2022/07/24 01:37:45;;;;;;;2.00;1.00;;;;;;;;;;5001733;28;20033;-85
2022/07/24 01:40:11;;;;;;;3.63;1.10;;;;;;;;;;5002146;28;20384;-84
2022/07/24 01:42:36;;;;;;;3.13;1.35;;;;;;;;;;4999097;28;20037;-84
2022/07/24 01:45:06;;;;;;;2.60;1.30;;;;;;;;;;5015849;28;20120;-85
2022/07/24 01:47:31;;;;;;;5.00;1.20;;;;;;;;;;5006598;28;20091;-85
2022/07/24 01:49:56;;;;;;;2.78;1.30;;;;;;;;;;4999323;28;20485;-84
2022/07/24 01:52:25;;;;;;;3.40;1.30;;;;;;;;;;5000508;28;20042;-85
2022/07/24 01:54:51;;;;;;;4.22;1.13;;;;;;;;;;4985249;28;20041;-84
2022/07/24 01:57:16;;;;;;;2.45;1.10;;;;;;;;;;4997638;28;20510;-84
2022/07/24 01:59:42;;;;;;;2.35;1.10;;;;;;;;;;4998427;28;20040;-84
2022/07/24 02:02:07;;;;;;;2.38;1.15;;;;;;;;;;5005316;28;20494;-85
2022/07/24 02:04:33;;;;;;;3.20;1.10;;;;;;;;;;5005910;28;20545;-85
2022/07/24 02:06:58;;;;;;;2.80;1.10;;;;;;;;;;5013343;28;20037;-84
2022/07/24 02:09:23;;;;;;;3.05;1.50;;;;;;;;;;5004707;28;20042;-85
2022/07/24 02:11:49;;;;;;;2.58;1.02;;;;;;;;;;4999929;28;20106;-84
2022/07/24 02:14:14;;;;;;;2.85;1.20;;;;;;;;;;5001489;28;20061;-85
2022/07/24 02:16:39;;;;;;;2.47;1.10;;;;;;;;;;5000031;28;20116;-85
2022/07/24 02:19:05;;;;;;;3.08;1.35;;;;;;;;;;5000385;28;20096;-85
2022/07/24 02:21:30;;;;;;;4.07;1.40;;;;;;;;;;4988589;28;20057;-85
2022/07/24 02:23:56;;;;;;;2.67;1.20;;;;;;;;;;4979097;28;20484;-85
2022/07/24 02:26:22;;;;;;;3.13;1.25;;;;;;;;;;5002503;28;20042;-84
2022/07/24 02:28:47;;;;;;;2.38;1.15;;;;;;;;;;5007007;28;20512;-84
2022/07/24 02:31:13;;;;;;;2.97;1.23;;;;;;;;;;5009249;28;20033;-85
2022/07/24 02:33:39;;;;;;;3.65;1.30;;;;;;;;;;4981929;28;20056;-85
2022/07/24 02:36:04;;;;;;;3.30;1.10;;;;;;;;;;4981883;28;20030;-84
2022/07/24 02:38:30;;;;;;;2.35;1.20;;;;;;;;;;5015136;28;20556;-84
2022/07/24 02:40:56;;;;;;;2.92;1.02;;;;;;;;;;4988593;28;20457;-84
2022/07/24 02:43:21;;;;;;;3.53;1.20;;;;;;;;;;5000039;28;20061;-84
2022/07/24 02:45:46;;;;;;;3.13;1.17;;;;;;;;;;5001997;28;20026;-84
2022/07/24 02:48:12;;;;;;;1.88;0.80;;;;;;;;;;4984628;28;20095;-84
2022/07/24 02:50:38;;;;;;;5.88;1.20;;;;;;;;;;4994837;28;20034;-84
2022/07/24 02:53:05;;;;;;;3.20;1.10;;;;;;;;;;5000774;28;20045;-84
2022/07/24 02:55:30;;;;;;;2.45;1.20;;;;;;;;;;5001748;28;20037;-84
2022/07/24 02:57:57;;;;;;;4.47;1.33;;;;;;;;;;5011663;28;20046;-84
2022/07/24 03:00:23;;;;;;;3.03;1.33;;;;;;;;;;4997038;28;20038;-84
2022/07/24 03:02:52;;;;;;;2.25;1.02;;;;;;;;;;5000779;28;20092;-84
2022/07/24 03:05:17;;;;;;;2.50;1.13;;;;;;;;;;5009045;28;20485;-84
2022/07/24 03:07:43;;;;;;;3.13;1.20;;;;;;;;;;5000806;28;20040;-84
2022/07/24 03:10:10;;;;;;;2.20;1.08;;;;;;;;;;4997158;28;20113;-84
2022/07/24 03:12:36;;;;;;;3.10;1.23;;;;;;;;;;4998377;28;20496;-84
2022/07/24 03:15:01;;;;;;;1.88;1.05;;;;;;;;;;5000506;28;20041;-85
2022/07/24 03:17:26;;;;;;;2.72;1.13;;;;;;;;;;4998798;28;20120;-85
2022/07/24 03:19:52;;;;;;;2.80;1.40;;;;;;;;;;5014378;28;20030;-85
2022/07/24 03:22:17;;;;;;;2.25;1.00;;;;;;;;;;5013776;28;20087;-85
2022/07/24 03:24:43;;;;;;;2.50;1.13;;;;;;;;;;5014028;28;20526;-84
2022/07/24 03:27:08;;;;;;;2.40;1.20;;;;;;;;;;4995741;28;20516;-84
2022/07/24 03:29:34;;;;;;;2.88;1.17;;;;;;;;;;4983675;28;20481;-84
2022/07/24 03:31:59;;;;;;;2.58;1.00;;;;;;;;;;4998920;28;20040;-85
2022/07/24 03:34:25;;;;;;;2.75;1.10;;;;;;;;;;4999811;28;20111;-84
2022/07/24 03:36:50;;;;;;;2.10;1.10;;;;;;;;;;4988409;28;20077;-84
2022/07/24 03:39:15;;;;;;;3.03;1.20;;;;;;;;;;5001046;28;20037;-85
2022/07/24 03:41:41;;;;;;;3.25;1.20;;;;;;;;;;4998180;28;20072;-84
2022/07/24 03:44:06;;;;;;;3.25;1.20;;;;;;;;;;4997964;28;20437;-85
2022/07/24 03:46:32;;;;;;;2.47;1.20;;;;;;;;;;4991042;28;20117;-84
2022/07/24 03:48:57;;;;;;;2.28;1.00;;;;;;;;;;4997410;28;20045;-85
2022/07/24 03:51:23;;;;;;;2.10;1.02;;;;;;;;;;4996423;28;20081;-85
2022/07/24 03:53:48;;;;;;;2.67;1.08;;;;;;;;;;4982997;28;20030;-85
2022/07/24 03:56:15;;;;;;;2.35;1.25;;;;;;;;;;5016014;28;20061;-85
2022/07/24 03:58:40;;;;;;;3.30;1.30;;;;;;;;;;5005416;28;20410;-84
2022/07/24 04:01:06;;;;;;;3.47;1.05;;;;;;;;;;4999510;28;20032;-85
2022/07/24 04:03:32;;;;;;;2.55;1.17;;;;;;;;;;5002802;28;20068;-84
2022/07/24 04:05:57;;;;;;;2.47;1.13;;;;;;;;;;5001925;28;20030;-85
2022/07/24 04:08:22;;;;;;;2.33;1.20;;;;;;;;;;5002684;28;20041;-85
2022/07/24 04:10:48;;;;;;;2.78;1.20;;;;;;;;;;5001362;28;20104;-84
2022/07/24 04:13:13;;;;;;;2.55;1.33;;;;;;;;;;5017037;28;20037;-84
2022/07/24 04:15:39;;;;;;;2.60;1.20;;;;;;;;;;5011522;28;20056;-85
2022/07/24 04:18:04;;;;;;;2.10;1.05;;;;;;;;;;5001810;28;20494;-85
2022/07/24 04:20:29;;;;;;;4.03;1.30;;;;;;;;;;5002640;28;20709;-82
2022/07/24 04:22:55;;;;;;;2.40;1.30;;;;;;;;;;4999535;28;20103;-82
2022/07/24 04:25:20;;;;;;;4.45;1.45;;;;;;;;;;5013542;28;20045;-83
2022/07/24 04:27:47;;;;;;;3.63;1.35;;;;;;;;;;5018145;28;20064;-82
2022/07/24 04:30:13;;;;;;;2.73;1.13;;;;;;;;;;5017872;28;20105;-82
2022/07/24 04:32:39;;;;;;;2.92;1.27;;;;;;;;;;5002975;28;20284;-81
2022/07/24 04:35:05;;;;;;;2.40;1.00;;;;;;;;;;5008080;28;20378;-82
2022/07/24 04:37:31;;;;;;;2.20;1.00;;;;;;;;;;5014448;28;20034;-82
2022/07/24 04:39:56;;;;;;;2.65;1.02;;;;;;;;;;4998933;28;20045;-81
2022/07/24 04:42:21;;;;;;;2.28;1.00;;;;;;;;;;5007501;28;20673;-82
2022/07/24 04:44:47;;;;;;;2.30;0.90;;;;;;;;;;4986181;28;20489;-82
2022/07/24 04:47:12;;;;;;;5.82;1.15;;;;;;;;;;5005437;28;20034;-81
2022/07/24 04:49:38;;;;;;;2.35;0.90;;;;;;;;;;5002282;28;20520;-82
2022/07/24 04:52:03;;;;;;;2.85;1.00;;;;;;;;;;5003661;28;20034;-81
2022/07/24 04:54:28;;;;;;;2.28;0.98;;;;;;;;;;5001137;28;20053;-82
2022/07/24 04:56:57;;;;;;;1.50;0.80;;;;;;;;;;5019345;28;20103;-83
2022/07/24 04:59:22;;;;;;;2.45;1.10;;;;;;;;;;4998742;28;20044;-82
2022/07/24 05:01:47;;;;;;;2.28;0.80;;;;;;;;;;5002108;28;20033;-82
2022/07/24 05:04:13;;;;;;;2.88;0.98;;;;;;;;;;5006320;28;20067;-82
2022/07/24 05:06:39;;;;;;;2.33;0.80;;;;;;;;;;4985701;28;20038;-82
2022/07/24 05:09:04;;;;;;;2.63;0.82;;;;;;;;;;5015324;28;20030;-82
2022/07/24 05:11:29;;;;;;;3.00;1.02;;;;;;;;;;5024587;28;20041;-83
2022/07/24 05:13:55;;;;;;;3.78;1.10;;;;;;;;;;5007243;28;20091;-82
2022/07/24 05:16:20;;;;;;;2.30;0.77;;;;;;;;;;5000935;28;20397;-82
2022/07/24 05:18:46;;;;;;;1.92;0.80;;;;;;;;;;5014224;28;20042;-82
2022/07/24 05:21:11;;;;;;;1.27;0.60;;;;;;;;;;4998755;28;20045;-82
2022/07/24 05:23:36;;;;;;;3.45;0.70;;;;;;;;;;4997713;28;20042;-82
2022/07/24 05:26:02;;;;;;;3.22;0.80;;;;;;;;;;4993585;28;20091;-82
2022/07/24 05:28:27;;;;;;;1.42;0.70;;;;;;;;;;5003315;28;20042;-82
2022/07/24 05:30:53;;;;;;;2.33;0.70;;;;;;;;;;5004006;28;20064;-83
2022/07/24 05:33:18;;;;;;;1.90;0.82;;;;;;;;;;4999157;28;20056;-82
2022/07/24 05:35:43;;;;;;;1.48;0.65;;;;;;;;;;5000618;28;20507;-82
2022/07/24 05:38:09;;;;;;;1.55;0.70;;;;;;;;;;5002380;28;20033;-81
2022/07/24 05:40:34;;;;;;;1.90;0.60;;;;;;;;;;5006478;28;20041;-81
2022/07/24 05:42:59;;;;;;;3.88;0.80;;;;;;;;;;5006154;28;20057;-81
2022/07/24 05:45:25;;;;;;;2.65;0.85;;;;;;;;;;5000972;28;20033;-82
2022/07/24 05:47:50;;;;;;;0.95;0.50;;;;;;;;;;5001540;28;20034;-83
2022/07/24 05:50:16;;;;;;;0.82;0.50;;;;;;;;;;5000098;28;20041;-82
2022/07/24 05:52:41;;;;;;;1.70;0.60;;;;;;;;;;4998729;28;20036;-82
2022/07/24 05:55:07;;;;;;;1.48;0.55;;;;;;;;;;5014974;28;20034;-83
2022/07/24 05:57:33;;;;;;;1.02;0.40;;;;;;;;;;5014074;28;20041;-82
2022/07/24 05:59:58;;;;;;;1.67;0.75;;;;;;;;;;4997915;28;20076;-82
2022/07/24 06:02:24;;;;;;;1.25;0.57;;;;;;;;;;5001548;28;20065;-82
2022/07/24 06:04:49;;;;;;;1.38;0.70;;;;;;;;;;5001563;28;20045;-82
2022/07/24 06:07:14;;;;;;;0.60;0.30;;;;;;;;;;5000650;28;20037;-82
2022/07/24 06:09:40;;;;;;;2.88;0.70;;;;;;;;;;5000006;28;20516;-82
2022/07/24 06:12:06;;;;;;;1.65;0.60;;;;;;;;;;4999606;28;20556;-84
2022/07/24 06:14:32;;;;;;;1.40;0.70;;;;;;;;;;5013619;28;20413;-81
2022/07/24 06:16:57;;;;;;;1.42;0.63;;;;;;;;;;5000272;28;20057;-83
2022/07/24 06:19:24;;;;;;;1.23;0.52;;;;;;;;;;4989411;28;20076;-81
2022/07/24 06:21:52;;;;;;;1.80;0.60;;;;;;;;;;4962902;28;20490;-82
2022/07/24 06:24:18;;;;;;;;;;;;;;;;;;5014367;28;20041;-82
2022/07/24 06:26:43;;;;;;;1.08;0.50;;;;;;;;;;4984979;28;19945;-82
2022/07/24 06:29:11;;;;;;;1.60;0.57;;;;;;;;;;4982578;28;20065;-82
2022/07/24 06:31:37;;;;;;;3.97;0.65;;;;;;;;;;5017598;28;20436;-84
2022/07/24 06:34:02;;;;;;;1.80;0.65;;;;;;;;;;4986856;28;20034;-82
2022/07/24 06:36:28;;;;;;;1.60;0.60;;;;;;;;;;5011128;28;20042;-82
2022/07/24 06:38:53;;;;;;;0.75;0.45;;;;;;;;;;4987516;28;20042;-81
2022/07/24 06:41:19;;;;;;;1.75;0.50;;;;;;;;;;5005297;28;20034;-82
2022/07/24 06:43:45;;;;;;;1.52;0.52;;;;;;;;;;5001117;28;20117;-81
2022/07/24 06:46:11;;;;;;;1.98;0.65;;;;;;;;;;4998700;28;21184;-83
2022/07/24 06:48:38;;;;;;;2.40;0.60;;;;;;;;;;5007718;28;20092;-82
2022/07/24 06:51:03;;;;;;;2.17;0.63;;;;;;;;;;5014893;28;20044;-81
2022/07/24 06:53:28;;;;;;;1.23;0.50;;;;;;;;;;5014651;28;20501;-83
2022/07/24 06:55:55;;;;;;;2.17;0.50;;;;;;;;;;4999200;28;20048;-83
2022/07/24 06:58:20;;;;;;;1.92;0.50;;;;;;;;;;5008148;28;20064;-82
2022/07/24 07:00:47;;;;;;;1.25;0.50;;;;;;;;;;4998669;28;20959;-82
2022/07/24 07:03:12;;;;;;;1.85;0.60;;;;;;;;;;4997515;28;20455;-83
2022/07/24 07:05:37;;;;;;;2.05;0.70;;;;;;;;;;5018236;28;20029;-82
2022/07/24 07:08:03;;;;;;;1.63;0.60;;;;;;;;;;4996997;28;20033;-83
2022/07/24 07:10:28;;;;;;;1.00;0.43;;;;;;;;;;4994683;28;20541;-82
2022/07/24 07:12:54;;;;;;;1.80;0.55;;;;;;;;;;4997289;28;20041;-83
2022/07/24 07:15:19;;;;;;;1.23;0.40;;;;;;;;;;5015676;28;20552;-82
2022/07/24 07:17:45;;;;;;;1.25;0.43;;;;;;;;;;4999680;28;20104;-82
2022/07/24 07:20:12;;;;;;;2.10;0.50;;;;;;;;;;4998663;28;20061;-81
2022/07/24 07:22:37;;;;;;;1.45;0.50;;;;;;;;;;5010918;28;20544;-82
2022/07/24 07:25:04;;;;;;;1.48;0.50;;;;;;;;;;5017039;28;20034;-81
2022/07/24 07:27:29;;;;;;;1.20;0.50;;;;;;;;;;4995757;28;20131;-80
2022/07/24 07:29:54;;;;;;;1.98;0.55;;;;;;;;;;5001179;28;20114;-81
2022/07/24 07:32:23;;;;;;;0.75;0.30;;;;;;;;;;5015833;28;20112;-80
2022/07/24 07:34:48;;;;;;;1.42;0.47;;;;;;;;;;5012105;28;20564;-80
2022/07/24 07:37:13;;;;;;;1.58;0.60;;;;;;;;;;5014592;28;20034;-80
2022/07/24 07:39:39;;;;;;;1.42;0.50;;;;;;;;;;5003504;28;20048;-80
2022/07/24 07:42:04;;;;;;;1.60;0.55;;;;;;;;;;5005298;28;20098;-79
2022/07/24 07:44:30;;;;;;;1.83;0.40;;;;;;;;;;5000604;28;20046;-81
2022/07/24 07:46:56;;;;;;;1.45;0.40;;;;;;;;;;5001394;28;20601;-79
2022/07/24 07:49:21;;;;;;;1.70;0.50;;;;;;;;;;5004572;28;20049;-82
2022/07/24 07:51:47;;;;;;;2.35;0.65;;;;;;;;;;5000833;28;20036;-80
2022/07/24 07:54:14;;;;;;;1.27;0.40;;;;;;;;;;5004273;28;20026;-81
2022/07/24 07:56:40;;;;;;;0.95;0.43;;;;;;;;;;4983764;28;20051;-81
2022/07/24 07:59:05;;;;;;;1.95;0.50;;;;;;;;;;5020133;28;20045;-81
2022/07/24 08:01:30;;;;;;;2.08;0.70;;;;;;;;;;5000615;28;20034;-80
2022/07/24 08:03:56;;;;;;;2.25;0.57;;;;;;;;;;4998938;28;20050;-81
2022/07/24 08:06:21;;;;;;;1.75;0.63;;;;;;;;;;4996970;28;20080;-80
2022/07/24 08:08:46;;;;;;;1.05;0.50;;;;;;;;;;5007805;28;20080;-80
2022/07/24 08:11:12;;;;;;;1.00;0.50;;;;;;;;;;5008959;28;20041;-82
2022/07/24 08:13:38;;;;;;;1.98;0.65;;;;;;;;;;5003648;28;20034;-80
2022/07/24 08:16:06;;;;;;;1.52;0.52;;;;;;;;;;5001704;28;20030;-80
2022/07/24 08:18:32;;;;;;;2.25;0.57;;;;;;;;;;5017790;28;20029;-83
2022/07/24 08:20:57;;;;;;;1.83;0.50;;;;;;;;;;4996674;28;20354;-81
2022/07/24 08:23:22;;;;;;;3.45;0.43;;;;;;;;;;5001306;28;20053;-81
2022/07/24 08:25:48;;;;;;;1.73;0.60;;;;;;;;;;4998375;28;20038;-81
2022/07/24 08:28:13;;;;;;;1.35;0.52;;;;;;;;;;4999799;28;20349;-81
2022/07/24 08:30:38;;;;;;;1.58;0.60;;;;;;;;;;5000860;28;20041;-81
2022/07/24 08:33:04;;;;;;;1.33;0.40;;;;;;;;;;5000532;28;20088;-81
2022/07/24 08:35:29;;;;;;;1.60;0.40;;;;;;;;;;5014606;28;20038;-80
2022/07/24 08:37:54;;;;;;;1.50;0.50;;;;;;;;;;4998979;28;20109;-80
2022/07/24 08:40:42;;;;;;;2.80;0.50;;;;;;;;;;5001812;28;20036;-81
2022/07/24 08:43:08;;;;;;;1.25;0.47;;;;;;;;;;5042521;28;20037;-81
2022/07/24 08:45:36;;;;;;;2.50;0.50;;;;;;;;;;5001580;28;20183;-83
2022/07/24 08:48:05;;;;;;;1.10;0.40;;;;;;;;;;5027281;28;20068;-81
2022/07/24 08:50:32;;;;;;;1.92;0.52;;;;;;;;;;5010272;28;20040;-81
2022/07/24 08:52:58;;;;;;;1.70;0.50;;;;;;;;;;5028425;28;20037;-81
2022/07/24 08:55:23;;;;;;;2.10;0.60;;;;;;;;;;5025321;28;20374;-82
2022/07/24 08:57:49;;;;;;;1.63;0.50;;;;;;;;;;5013937;28;20122;-81
2022/07/24 09:00:14;;;;;;;2.95;0.60;;;;;;;;;;5010874;28;20044;-81
2022/07/24 09:02:40;;;;;;;2.15;0.60;;;;;;;;;;5027419;28;20041;-81
2022/07/24 09:05:06;;;;;;;1.98;0.40;;;;;;;;;;5013147;28;20393;-82
2022/07/24 09:07:31;;;;;;;0.85;0.38;;;;;;;;;;5011598;28;20043;-81
2022/07/24 09:10:05;;;;;;;1.70;0.47;;;;;;;;;;5011781;28;20041;-82
2022/07/24 09:12:35;;;;;;;1.80;0.45;;;;;;;;;;5026950;28;20037;-82
2022/07/24 09:15:02;;;;;;;1.50;0.40;;;;;;;;;;5012222;28;20121;-81
2022/07/24 09:17:28;;;;;;;0.75;0.22;;;;;;;;;;5005425;28;20412;-82
2022/07/24 09:20:01;;;;;;;1.25;0.35;;;;;;;;;;5018007;28;20038;-82
2022/07/24 09:22:40;;;;;;;1.10;0.38;;;;;;;;;;5016055;28;20044;-82
2022/07/24 09:25:18;;;;;;;1.50;0.45;;;;;;;;;;5000711;28;20026;-82
2022/07/24 09:27:50;;;;;;;1.35;0.40;;;;;;;;;;5017348;28;20092;-81
2022/07/24 09:30:23;;;;;;;2.10;0.50;;;;;;;;;;4984879;28;20108;-81
2022/07/24 09:32:59;;;;;;;1.80;0.45;;;;;;;;;;5017065;28;20050;-82
2022/07/24 09:35:30;;;;;;;0.70;0.30;;;;;;;;;;4996489;28;20037;-82
2022/07/24 09:37:58;;;;;;;0.93;0.28;;;;;;;;;;5006042;28;20121;-82
2022/07/24 09:40:38;;;;;;;1.10;0.30;;;;;;;;;;5011762;28;20038;-82
2022/07/24 09:43:12;;;;;;;0.88;0.30;;;;;;;;;;5006656;28;20037;-81
2022/07/24 09:45:54;;;;;;;1.30;0.40;;;;;;;;;;5007571;28;20033;-82
2022/07/24 09:48:22;;;;;;;0.82;0.30;;;;;;;;;;5024412;28;20044;-82
2022/07/24 09:50:51;;;;;;;1.30;0.50;;;;;;;;;;5008063;28;20452;-81
2022/07/24 09:53:18;;;;;;;1.08;0.40;;;;;;;;;;5000389;28;20045;-82
2022/07/24 09:55:44;;;;;;;1.35;0.30;;;;;;;;;;4997233;28;20123;-84
2022/07/24 09:58:17;;;;;;;1.53;0.40;;;;;;;;;;5001149;28;20516;-83
2022/07/24 10:00:43;;;;;;;1.83;0.38;;;;;;;;;;5000922;28;20517;-83
2022/07/24 10:03:08;;;;;;;;;;;;;;;;;;5015817;28;20042;-83
2022/07/24 10:05:36;;;;;;;0.68;0.30;;;;;;;;;;5022269;28;20412;-83
2022/07/24 10:08:03;;;;;;;1.10;0.30;;;;;;;;;;4997452;28;20036;-83
2022/07/24 10:10:28;;;;;;;0.95;0.38;;;;;;;;;;5000961;28;20034;-83
2022/07/24 10:12:56;;;;;;;1.77;0.30;;;;;;;;;;5012892;28;20040;-84
2022/07/24 10:15:22;;;;;;;0.90;0.40;;;;;;;;;;5001152;28;20034;-84
2022/07/24 10:18:07;;;;;;;1.05;0.43;;;;;;;;;;4996203;28;20041;-84
2022/07/24 10:20:44;;;;;;;1.17;0.40;;;;;;;;;;5015156;28;20096;-83
2022/07/24 10:23:20;;;;;;;0.73;0.30;;;;;;;;;;5006498;28;20094;-83
2022/07/24 10:25:51;;;;;;;1.27;0.40;;;;;;;;;;5007597;28;20034;-83
2022/07/24 10:28:26;;;;;;;0.95;0.32;;;;;;;;;;5015332;28;20106;-83
2022/07/24 10:30:52;;;;;;;1.00;0.30;;;;;;;;;;5006129;28;20064;-83
2022/07/24 10:33:17;;;;;;;2.17;0.40;;;;;;;;;;5014592;28;20050;-81
2022/07/24 10:35:43;;;;;;;0.83;0.30;;;;;;;;;;5013260;28;20723;-81
2022/07/24 10:38:17;;;;;;;1.52;0.50;;;;;;;;;;4997549;28;20041;-82
2022/07/24 10:40:46;;;;;;;1.17;0.40;;;;;;;;;;5013801;28;20069;-81
2022/07/24 10:43:14;;;;;;;1.60;0.30;;;;;;;;;;5004324;28;20509;-82
2022/07/24 10:45:44;;;;;;;0.98;0.35;;;;;;;;;;4997045;28;20051;-80
2022/07/24 10:48:23;;;;;;;1.60;0.45;;;;;;;;;;4997322;28;20563;-82
2022/07/24 10:50:57;;;;;;;0.77;0.30;;;;;;;;;;5022106;28;20038;-81
2022/07/24 10:53:43;;;;;;;1.73;0.43;;;;;;;;;;5011844;28;20029;-82
2022/07/24 10:56:40;;;;;;;1.33;0.40;;;;;;;;;;5010185;28;20117;-82
2022/07/24 10:59:08;;;;;;;1.65;0.50;;;;;;;;;;5010276;28;20112;-83
2022/07/24 11:01:53;;;;;;;1.90;0.50;;;;;;;;;;5020911;28;20619;-81
2022/07/24 11:04:19;;;;;;;1.98;0.45;;;;;;;;;;5016028;28;20056;-82
2022/07/24 11:06:52;;;;;;;1.23;0.40;;;;;;;;;;5013755;28;20527;-82
2022/07/24 11:09:19;;;;;;;1.15;0.55;;;;;;;;;;5021966;28;20037;-82
2022/07/24 11:11:50;;;;;;;0.95;0.30;;;;;;;;;;5009976;28;20072;-82
2022/07/24 11:14:17;;;;;;;1.30;0.50;;;;;;;;;;5016939;28;20037;-83
2022/07/24 11:16:43;;;;;;;0.95;0.40;;;;;;;;;;4979357;28;21206;-82
2022/07/24 11:19:11;;;;;;;1.73;0.50;;;;;;;;;;5009164;28;20033;-84
2022/07/24 11:21:42;;;;;;;1.30;0.50;;;;;;;;;;5011784;28;20037;-83
2022/07/24 11:24:17;;;;;;;1.90;0.50;;;;;;;;;;5004202;28;20562;-82
2022/07/24 11:26:50;;;;;;;1.63;0.50;;;;;;;;;;4994842;28;20038;-81
2022/07/24 11:29:16;;;;;;;1.25;0.40;;;;;;;;;;5011989;28;20037;-82
2022/07/24 11:31:43;;;;;;;1.57;0.60;;;;;;;;;;5020417;28;20452;-82
2022/07/24 11:34:09;;;;;;;1.95;0.63;;;;;;;;;;4998666;28;20034;-81
2022/07/24 11:36:36;;;;;;;1.48;0.55;;;;;;;;;;4996623;28;20037;-83
2022/07/24 11:39:04;;;;;;;2.10;0.70;;;;;;;;;;4996972;28;20038;-82
2022/07/24 11:41:49;;;;;;;1.35;0.60;;;;;;;;;;4999944;28;20481;-81
2022/07/24 11:44:25;;;;;;;1.25;0.60;;;;;;;;;;5013712;28;20030;-82
2022/07/24 11:46:54;;;;;;;1.60;0.70;;;;;;;;;;5013984;28;20044;-81
2022/07/24 11:49:19;;;;;;;1.85;0.70;;;;;;;;;;5004454;28;20042;-81
2022/07/24 11:51:46;;;;;;;1.48;0.47;;;;;;;;;;4994429;28;20037;-81
2022/07/24 11:54:14;;;;;;;1.40;0.63;;;;;;;;;;5014464;28;20026;-80
2022/07/24 11:56:40;;;;;;;1.45;0.50;;;;;;;;;;5000499;28;20045;-81
2022/07/24 11:59:20;;;;;;;1.80;0.50;;;;;;;;;;5010872;28;20128;-81
2022/07/24 12:01:45;;;;;;;1.52;0.63;;;;;;;;;;4996789;28;20508;-81
2022/07/24 12:04:11;;;;;;;1.27;0.50;;;;;;;;;;5013983;28;20041;-81
2022/07/24 12:06:36;;;;;;;1.75;0.60;;;;;;;;;;4996263;28;20060;-83
2022/07/24 12:09:10;;;;;;;1.48;0.50;;;;;;;;;;4998835;28;20394;-82
2022/07/24 12:11:35;;;;;;;2.17;0.50;;;;;;;;;;5001173;28;20083;-81
2022/07/24 12:14:04;;;;;;;1.35;0.50;;;;;;;;;;4983191;28;20489;-80
2022/07/24 12:16:30;;;;;;;1.63;0.60;;;;;;;;;;5016100;28;20121;-82
2022/07/24 12:19:14;;;;;;;1.38;0.57;;;;;;;;;;4999698;28;20553;-82
2022/07/24 12:21:41;;;;;;;1.08;0.50;;;;;;;;;;4998180;28;20386;-81
2022/07/24 12:24:07;;;;;;;;;;;;;;;;;;5004417;28;20033;-82
2022/07/24 12:26:32;;;;;;;2.13;0.80;;;;;;;;;;5014947;28;19913;-81
2022/07/24 12:29:11;;;;;;;1.40;0.57;;;;;;;;;;5007475;28;20044;-81
2022/07/24 12:31:36;;;;;;;1.52;0.63;;;;;;;;;;4987143;28;20033;-81
2022/07/24 12:34:03;;;;;;;1.00;0.50;;;;;;;;;;4986558;28;20040;-83
2022/07/24 12:36:29;;;;;;;1.75;0.73;;;;;;;;;;4986743;28;20038;-81
2022/07/24 12:38:55;;;;;;;1.67;0.80;;;;;;;;;;4988527;28;20034;-82
2022/07/24 12:41:22;;;;;;;1.83;1.02;;;;;;;;;;5008648;28;20033;-82
2022/07/24 12:43:58;;;;;;;1.80;0.60;;;;;;;;;;4997115;28;20057;-81
2022/07/24 12:46:35;;;;;;;1.40;0.60;;;;;;;;;;5007542;28;20058;-81
2022/07/24 12:49:10;;;;;;;2.92;0.70;;;;;;;;;;5000231;28;20122;-81
2022/07/24 12:51:53;;;;;;;1.60;0.60;;;;;;;;;;5017973;28;20057;-80
2022/07/24 12:54:36;;;;;;;0.85;0.38;;;;;;;;;;4998888;28;20033;-82
2022/07/24 12:57:07;;;;;;;1.63;0.60;;;;;;;;;;5013181;28;20560;-81
2022/07/24 12:59:34;;;;;;;1.70;0.60;;;;;;;;;;4982234;28;20049;-82
2022/07/24 13:02:05;;;;;;;1.55;0.68;;;;;;;;;;5013198;28;20041;-81
2022/07/24 13:04:30;;;;;;;1.27;0.50;;;;;;;;;;5003585;28;20377;-81
2022/07/24 13:07:00;;;;;;;1.40;0.60;;;;;;;;;;5004971;28;20044;-81
2022/07/24 13:09:26;;;;;;;1.50;0.60;;;;;;;;;;5017588;28;20038;-82
2022/07/24 13:11:54;;;;;;;1.40;0.63;;;;;;;;;;5000031;28;20065;-82
2022/07/24 13:14:21;;;;;;;1.58;0.60;;;;;;;;;;5014842;28;20034;-82
2022/07/24 13:16:48;;;;;;;0.93;0.50;;;;;;;;;;4994800;28;20116;-82
2022/07/24 13:19:14;;;;;;;1.70;0.70;;;;;;;;;;5016371;28;20524;-81
2022/07/24 13:21:40;;;;;;;1.58;0.60;;;;;;;;;;4998733;28;20037;-81
2022/07/24 13:24:07;;;;;;;1.60;0.63;;;;;;;;;;4993808;28;20468;-81
2022/07/24 13:26:32;;;;;;;2.10;0.70;;;;;;;;;;5005123;28;20505;-82
2022/07/24 13:28:58;;;;;;;1.58;0.60;;;;;;;;;;5002263;28;20244;-82
2022/07/24 13:31:24;;;;;;;1.30;0.60;;;;;;;;;;5007548;28;20034;-81
2022/07/24 13:33:49;;;;;;;2.55;0.60;;;;;;;;;;5014916;28;20559;-82
2022/07/24 13:36:16;;;;;;;1.63;0.50;;;;;;;;;;5015615;28;20151;-82
2022/07/24 13:38:41;;;;;;;1.60;0.70;;;;;;;;;;5006838;28;20042;-83
2022/07/24 13:41:07;;;;;;;1.30;0.50;;;;;;;;;;5000623;28;20555;-83
2022/07/24 13:43:35;;;;;;;1.65;0.65;;;;;;;;;;5012731;28;20127;-81
2022/07/24 13:46:01;;;;;;;1.55;0.55;;;;;;;;;;4998017;28;20045;-81
2022/07/24 13:48:26;;;;;;;1.25;0.50;;;;;;;;;;5003952;28;20478;-81
2022/07/24 13:50:52;;;;;;;2.08;0.60;;;;;;;;;;4995134;28;20235;-81
2022/07/24 13:53:17;;;;;;;1.92;0.60;;;;;;;;;;5011928;28;20041;-82
2022/07/24 13:55:42;;;;;;;1.58;0.60;;;;;;;;;;4998361;28;20085;-81
2022/07/24 13:58:08;;;;;;;1.45;0.50;;;;;;;;;;4984203;28;20053;-82
2022/07/24 14:00:34;;;;;;;1.60;0.50;;;;;;;;;;5006089;28;20477;-83
2022/07/24 14:02:59;;;;;;;1.77;0.65;;;;;;;;;;4998855;28;20042;-82
2022/07/24 14:05:25;;;;;;;2.28;0.70;;;;;;;;;;5006187;28;20532;-82
2022/07/24 14:07:51;;;;;;;1.25;0.55;;;;;;;;;;5003431;28;20080;-81
2022/07/24 14:10:17;;;;;;;1.00;0.43;;;;;;;;;;5013523;28;20111;-84
2022/07/24 14:12:43;;;;;;;1.67;0.60;;;;;;;;;;4995701;28;20156;-81
2022/07/24 14:15:09;;;;;;;1.95;0.70;;;;;;;;;;4998204;28;20528;-82
2022/07/24 14:17:35;;;;;;;1.55;0.47;;;;;;;;;;4994486;28;20048;-81
2022/07/24 14:20:01;;;;;;;1.20;0.60;;;;;;;;;;5000025;28;20746;-82
2022/07/24 14:22:26;;;;;;;1.45;0.50;;;;;;;;;;5014422;28;20389;-82
2022/07/24 14:24:52;;;;;;;2.50;0.77;;;;;;;;;;4998731;28;20030;-81
2022/07/24 14:27:17;;;;;;;1.40;0.60;;;;;;;;;;5012714;28;20040;-81
2022/07/24 14:29:43;;;;;;;1.70;0.60;;;;;;;;;;5003904;28;20038;-81
2022/07/24 14:32:08;;;;;;;1.75;0.80;;;;;;;;;;4996718;28;20541;-81
2022/07/24 14:34:33;;;;;;;1.35;0.60;;;;;;;;;;5005427;28;20038;-82
2022/07/24 14:36:59;;;;;;;2.00;0.70;;;;;;;;;;5005538;28;20513;-81
2022/07/24 14:39:24;;;;;;;1.83;0.77;;;;;;;;;;5006999;28;20462;-81
2022/07/24 14:41:49;;;;;;;1.75;0.80;;;;;;;;;;5014311;28;20042;-81